Time;durP1;ratioP1;P1;durP2;ratioP2;P2;SDS_P1;SDS_P2;PMS_P1;PMS_P2;Temp;Humidity;BMP_temperature;BMP_pressure;BME280_temperature;BME280_humidity;BME280_pressure;Samples;Min_cycle;Max_cycle;Signal;HPM_P1;HPM_P2
2024/01/12 00:01:17;;;;;;;25.87;17.30;;;;;;;;;;5114765;27;20467;-85
2024/01/12 00:03:44;;;;;;;20.03;14.60;;;;;;;;;;5096581;28;20509;-87
2024/01/12 00:06:13;;;;;;;23.60;15.13;;;;;;;;;;5092142;28;20457;-87
2024/01/12 00:08:40;;;;;;;28.87;15.50;;;;;;;;;;5108230;28;20513;-86
2024/01/12 00:11:10;;;;;;;27.33;16.53;;;;;;;;;;5090005;28;20459;-86
2024/01/12 00:13:38;;;;;;;24.50;16.90;;;;;;;;;;5094697;28;20477;-87
2024/01/12 00:16:10;;;;;;;22.17;14.60;;;;;;;;;;5104319;28;20675;-87
2024/01/12 00:18:46;;;;;;;26.47;15.10;;;;;;;;;;5106680;28;20462;-88
2024/01/12 00:21:20;;;;;;;25.83;16.80;;;;;;;;;;5103455;28;20440;-86
2024/01/12 00:23:47;;;;;;;20.47;14.13;;;;;;;;;;5093378;28;20448;-89
2024/01/12 00:26:15;;;;;;;28.17;15.80;;;;;;;;;;5094807;28;20468;-88
2024/01/12 00:28:43;;;;;;;23.50;15.27;;;;;;;;;;5087447;28;20909;-85
2024/01/12 00:31:10;;;;;;;22.80;14.90;;;;;;;;;;5082508;28;20537;-87
2024/01/12 00:33:38;;;;;;;24.63;16.27;;;;;;;;;;5097034;28;20486;-87
2024/01/12 00:36:11;;;;;;;24.50;14.07;;;;;;;;;;5094478;28;20463;-85
2024/01/12 00:38:38;;;;;;;28.20;17.20;;;;;;;;;;5118168;27;20491;-88
2024/01/12 00:41:09;;;;;;;26.47;15.17;;;;;;;;;;5099286;28;20463;-87
2024/01/12 00:43:38;;;;;;;24.23;15.70;;;;;;;;;;5099246;28;20467;-88
2024/01/12 00:46:06;;;;;;;25.13;16.80;;;;;;;;;;5104692;28;20450;-86
2024/01/12 00:48:34;;;;;;;35.23;17.30;;;;;;;;;;5103704;28;20490;-87
2024/01/12 00:51:03;;;;;;;26.83;15.53;;;;;;;;;;5106405;28;20439;-84
2024/01/12 00:53:30;;;;;;;26.27;16.50;;;;;;;;;;5104964;28;20483;-86
2024/01/12 00:55:57;;;;;;;24.60;16.30;;;;;;;;;;5094651;28;20450;-85
2024/01/12 00:58:24;;;;;;;24.90;16.17;;;;;;;;;;5079297;28;20472;-86
2024/01/12 01:00:51;;;;;;;27.67;16.77;;;;;;;;;;5081378;28;20479;-85
2024/01/12 01:03:19;;;;;;;27.13;16.17;;;;;;;;;;5092303;28;20900;-85
2024/01/12 01:05:46;;;;;;;25.97;15.13;;;;;;;;;;5091363;28;20516;-86
2024/01/12 01:08:16;;;;;;;29.13;15.50;;;;;;;;;;5088619;28;20475;-87
2024/01/12 01:10:43;;;;;;;26.37;16.47;;;;;;;;;;5088377;28;20475;-88
2024/01/12 01:13:11;;;;;;;22.67;15.17;;;;;;;;;;5087114;28;21317;-86
2024/01/12 01:15:38;;;;;;;26.50;16.40;;;;;;;;;;5087313;28;20490;-86
2024/01/12 01:18:05;;;;;;;26.80;16.60;;;;;;;;;;5088629;28;20475;-84
2024/01/12 01:20:35;;;;;;;21.00;15.67;;;;;;;;;;5087035;28;20489;-85
2024/01/12 01:23:02;;;;;;;21.80;15.80;;;;;;;;;;5086929;28;20506;-90
2024/01/12 01:25:29;;;;;;;31.23;17.37;;;;;;;;;;5087264;28;20459;-87
2024/01/12 01:27:56;;;;;;;30.30;17.30;;;;;;;;;;5088699;28;20829;-86
2024/01/12 01:30:24;;;;;;;25.33;16.73;;;;;;;;;;5088548;28;20570;-85
2024/01/12 01:32:51;;;;;;;25.10;16.27;;;;;;;;;;5087038;28;20495;-85
2024/01/12 01:35:18;;;;;;;24.03;16.17;;;;;;;;;;5085398;28;20475;-86
2024/01/12 01:37:50;;;;;;;30.20;15.80;;;;;;;;;;5083836;28;20464;-87
2024/01/12 01:40:17;;;;;;;26.70;17.33;;;;;;;;;;5087272;28;20439;-88
2024/01/12 01:42:47;;;;;;;32.73;17.90;;;;;;;;;;5095657;28;20443;-87
2024/01/12 01:45:15;;;;;;;28.17;18.13;;;;;;;;;;5089365;28;20447;-87
2024/01/12 01:47:42;;;;;;;28.77;17.23;;;;;;;;;;5087284;28;20482;-88
2024/01/12 01:50:13;;;;;;;25.30;16.20;;;;;;;;;;5092174;28;20486;-85
2024/01/12 01:52:41;;;;;;;27.57;17.50;;;;;;;;;;5095447;28;20527;-85
2024/01/12 01:55:09;;;;;;;27.17;17.87;;;;;;;;;;5100960;28;21460;-87
2024/01/12 01:57:37;;;;;;;26.23;15.90;;;;;;;;;;5102051;28;20531;-87
2024/01/12 02:00:04;;;;;;;24.90;16.20;;;;;;;;;;5092650;28;20474;-88
2024/01/12 02:02:32;;;;;;;29.80;18.33;;;;;;;;;;5091947;28;20485;-87
2024/01/12 02:05:00;;;;;;;22.60;16.63;;;;;;;;;;5085168;28;20466;-87
2024/01/12 02:07:27;;;;;;;28.33;18.57;;;;;;;;;;5091789;28;20471;-85
2024/01/12 02:09:55;;;;;;;29.40;17.40;;;;;;;;;;5082204;28;20461;-86
2024/01/12 02:12:23;;;;;;;30.63;17.50;;;;;;;;;;5083020;28;20462;-86
2024/01/12 02:14:50;;;;;;;32.83;19.63;;;;;;;;;;5106923;28;20485;-86
2024/01/12 02:17:17;;;;;;;29.20;18.63;;;;;;;;;;5089167;28;21777;-87
2024/01/12 02:19:44;;;;;;;26.37;16.73;;;;;;;;;;5089607;28;20451;-89
2024/01/12 02:22:12;;;;;;;25.70;17.43;;;;;;;;;;5088603;28;20458;-86
2024/01/12 02:24:39;;;;;;;27.60;16.60;;;;;;;;;;5087004;28;20457;-85
2024/01/12 02:27:06;;;;;;;29.60;18.50;;;;;;;;;;5087580;28;20465;-87
2024/01/12 02:29:34;;;;;;;31.43;19.70;;;;;;;;;;5087719;28;20455;-87
2024/01/12 02:32:01;;;;;;;25.63;16.30;;;;;;;;;;5082070;28;20495;-87
2024/01/12 02:34:28;;;;;;;32.83;17.33;;;;;;;;;;5087143;28;20483;-86
2024/01/12 02:36:55;;;;;;;33.10;19.67;;;;;;;;;;5088042;28;20449;-85
2024/01/12 02:39:22;;;;;;;26.80;18.83;;;;;;;;;;5087222;28;20903;-88
2024/01/12 02:41:50;;;;;;;27.30;19.37;;;;;;;;;;5086981;28;21775;-85
2024/01/12 02:44:17;;;;;;;26.97;18.93;;;;;;;;;;5079122;28;20583;-84
2024/01/12 02:46:44;;;;;;;26.40;17.37;;;;;;;;;;5086398;28;20458;-85
2024/01/12 02:49:12;;;;;;;30.37;20.23;;;;;;;;;;5087325;28;20488;-86
2024/01/12 02:51:39;;;;;;;34.67;18.57;;;;;;;;;;5087181;28;20477;-86
2024/01/12 02:54:06;;;;;;;28.40;17.93;;;;;;;;;;5088832;28;20574;-87
2024/01/12 02:56:34;;;;;;;27.20;17.73;;;;;;;;;;5093687;28;20538;-87
2024/01/12 02:59:02;;;;;;;27.93;18.23;;;;;;;;;;5095058;28;20483;-85
2024/01/12 03:01:29;;;;;;;31.43;20.00;;;;;;;;;;5095933;28;20566;-85
2024/01/12 03:03:56;;;;;;;30.13;19.87;;;;;;;;;;5091691;28;20453;-85
2024/01/12 03:06:24;;;;;;;32.50;21.20;;;;;;;;;;5090088;28;20565;-85
2024/01/12 03:08:51;;;;;;;32.20;20.73;;;;;;;;;;5087911;28;20595;-87
2024/01/12 03:11:20;;;;;;;38.87;24.27;;;;;;;;;;5089227;28;20443;-86
2024/01/12 03:14:01;;;;;;;35.47;20.60;;;;;;;;;;5093291;28;20488;-88
2024/01/12 03:16:28;;;;;;;36.40;21.53;;;;;;;;;;5087878;28;20482;-86
2024/01/12 03:18:56;;;;;;;38.70;21.37;;;;;;;;;;5088245;28;20521;-85
2024/01/12 03:21:23;;;;;;;39.57;21.93;;;;;;;;;;5088300;28;21907;-87
2024/01/12 03:23:50;;;;;;;39.23;21.67;;;;;;;;;;5090881;28;20457;-87
2024/01/12 03:26:18;;;;;;;37.90;23.37;;;;;;;;;;5098818;28;20431;-87
2024/01/12 03:28:45;;;;;;;38.20;22.77;;;;;;;;;;5101447;28;20463;-86
2024/01/12 03:31:12;;;;;;;34.97;22.67;;;;;;;;;;5088972;28;20478;-85
2024/01/12 03:33:42;;;;;;;36.37;22.43;;;;;;;;;;5115680;28;20497;-87
2024/01/12 03:36:09;;;;;;;38.13;24.33;;;;;;;;;;5078209;28;20462;-86
2024/01/12 03:38:36;;;;;;;39.60;23.30;;;;;;;;;;5082234;28;20489;-85
2024/01/12 03:41:06;;;;;;;35.73;22.67;;;;;;;;;;5086279;28;20454;-86
2024/01/12 03:43:33;;;;;;;38.07;24.73;;;;;;;;;;5094171;28;20511;-86
2024/01/12 03:46:03;;;;;;;42.13;24.20;;;;;;;;;;5101682;28;20522;-87
2024/01/12 03:48:30;;;;;;;44.30;25.20;;;;;;;;;;5104457;28;20467;-86
2024/01/12 03:50:57;;;;;;;44.83;23.33;;;;;;;;;;5103165;28;20852;-85
2024/01/12 03:53:25;;;;;;;38.10;23.30;;;;;;;;;;5086453;28;20448;-84
2024/01/12 03:55:53;;;;;;;41.60;23.20;;;;;;;;;;5080913;28;20513;-87
2024/01/12 03:58:20;;;;;;;46.07;24.37;;;;;;;;;;5084173;28;20530;-85
2024/01/12 04:00:47;;;;;;;51.43;24.77;;;;;;;;;;5083113;28;20451;-85
2024/01/12 04:03:16;;;;;;;42.30;23.20;;;;;;;;;;5083015;28;20466;-85
2024/01/12 04:05:43;;;;;;;43.23;24.97;;;;;;;;;;5081327;28;20576;-85
2024/01/12 04:08:10;;;;;;;46.30;24.50;;;;;;;;;;5078987;28;20545;-86
2024/01/12 04:10:37;;;;;;;47.80;25.97;;;;;;;;;;5081834;28;20485;-84
2024/01/12 04:13:05;;;;;;;42.17;23.20;;;;;;;;;;5073092;28;20517;-85
2024/01/12 04:15:33;;;;;;;41.67;23.50;;;;;;;;;;5075826;28;20483;-86
2024/01/12 04:18:01;;;;;;;46.37;25.20;;;;;;;;;;5082936;28;20554;-84
2024/01/12 04:20:28;;;;;;;47.07;25.30;;;;;;;;;;5099630;27;20431;-86
2024/01/12 04:22:55;;;;;;;42.30;23.50;;;;;;;;;;5099878;28;20486;-85
2024/01/12 04:25:23;;;;;;;43.00;22.60;;;;;;;;;;5086382;28;21059;-86
2024/01/12 04:27:53;;;;;;;44.07;23.67;;;;;;;;;;5083815;28;20474;-88
2024/01/12 04:30:20;;;;;;;44.10;26.10;;;;;;;;;;5085735;28;20480;-87
2024/01/12 04:32:48;;;;;;;43.00;24.80;;;;;;;;;;5085285;28;20943;-87
2024/01/12 04:35:15;;;;;;;46.90;25.73;;;;;;;;;;5084179;28;20509;-87
2024/01/12 04:37:45;;;;;;;47.77;25.93;;;;;;;;;;5084871;28;20474;-86
2024/01/12 04:40:13;;;;;;;46.57;24.17;;;;;;;;;;5084842;28;20465;-85
2024/01/12 04:42:40;;;;;;;49.50;27.47;;;;;;;;;;5085163;28;20437;-87
2024/01/12 04:45:07;;;;;;;50.40;26.47;;;;;;;;;;5086546;28;20451;-87
2024/01/12 04:47:35;;;;;;;46.13;23.47;;;;;;;;;;5089078;28;20458;-87
2024/01/12 04:50:02;;;;;;;43.20;24.73;;;;;;;;;;5100166;28;20501;-86
2024/01/12 04:52:29;;;;;;;48.53;24.80;;;;;;;;;;5100111;28;20444;-86
2024/01/12 04:54:56;;;;;;;48.93;25.83;;;;;;;;;;5099052;28;20550;-88
2024/01/12 04:57:24;;;;;;;46.83;26.47;;;;;;;;;;5108770;28;20480;-87
2024/01/12 04:59:51;;;;;;;52.80;25.77;;;;;;;;;;5090462;28;20739;-87
2024/01/12 05:02:19;;;;;;;47.53;25.90;;;;;;;;;;5097986;28;20499;-86
2024/01/12 05:04:46;;;;;;;47.83;25.57;;;;;;;;;;5100195;28;21673;-87
2024/01/12 05:07:13;;;;;;;46.43;26.27;;;;;;;;;;5096739;28;20480;-86
2024/01/12 05:09:41;;;;;;;45.93;24.40;;;;;;;;;;5092128;28;20440;-85
2024/01/12 05:12:08;;;;;;;52.27;26.30;;;;;;;;;;5088624;28;20444;-87
2024/01/12 05:14:39;;;;;;;50.20;26.77;;;;;;;;;;5102956;28;20484;-87
2024/01/12 05:17:09;;;;;;;45.13;25.13;;;;;;;;;;5102996;28;20447;-87
2024/01/12 05:19:36;;;;;;;45.63;24.30;;;;;;;;;;5086406;28;20813;-85
2024/01/12 05:22:04;;;;;;;54.13;26.93;;;;;;;;;;5090196;28;20874;-88
2024/01/12 05:24:31;;;;;;;54.50;27.00;;;;;;;;;;5093162;28;20471;-87
2024/01/12 05:26:58;;;;;;;54.67;25.37;;;;;;;;;;5095835;28;20444;-87
2024/01/12 05:29:26;;;;;;;45.90;25.50;;;;;;;;;;5085054;28;20515;-87
2024/01/12 05:31:53;;;;;;;54.20;27.70;;;;;;;;;;5084496;28;20471;-85
2024/01/12 05:34:23;;;;;;;48.90;25.57;;;;;;;;;;5083328;28;20653;-85
2024/01/12 05:36:50;;;;;;;43.83;24.90;;;;;;;;;;5096653;28;20480;-84
2024/01/12 05:39:18;;;;;;;49.40;25.57;;;;;;;;;;5096928;28;20463;-85
2024/01/12 05:41:45;;;;;;;46.33;27.17;;;;;;;;;;5083517;28;20467;-86
2024/01/12 05:44:12;;;;;;;53.07;26.57;;;;;;;;;;5083543;28;20889;-89
2024/01/12 05:46:43;;;;;;;50.93;27.13;;;;;;;;;;5092174;28;20474;-87
2024/01/12 05:49:10;;;;;;;52.47;27.47;;;;;;;;;;5076277;28;20541;-87
2024/01/12 05:51:38;;;;;;;49.17;28.37;;;;;;;;;;5084985;28;20462;-86
2024/01/12 05:54:08;;;;;;;55.60;29.60;;;;;;;;;;5092661;28;20516;-85
2024/01/12 05:56:38;;;;;;;54.73;27.27;;;;;;;;;;5080978;28;20471;-86
2024/01/12 05:59:05;;;;;;;56.80;30.13;;;;;;;;;;5083753;28;20480;-86
2024/01/12 06:01:33;;;;;;;52.33;28.83;;;;;;;;;;5083056;28;20479;-85
2024/01/12 06:04:03;;;;;;;50.80;25.37;;;;;;;;;;5082637;28;20450;-87
2024/01/12 06:06:35;;;;;;;40.80;23.33;;;;;;;;;;5087312;28;20762;-88
2024/01/12 06:09:05;;;;;;;43.83;24.80;;;;;;;;;;5083073;28;20473;-86
2024/01/12 06:11:32;;;;;;;51.97;25.67;;;;;;;;;;5091832;28;20450;-87
2024/01/12 06:14:03;;;;;;;50.83;26.40;;;;;;;;;;5103833;28;20473;-87
2024/01/12 06:16:30;;;;;;;45.87;23.70;;;;;;;;;;5080436;28;20484;-84
2024/01/12 06:18:57;;;;;;;45.97;24.47;;;;;;;;;;5082832;28;20491;-88
2024/01/12 06:21:25;;;;;;;45.30;24.40;;;;;;;;;;5098520;28;20526;-85
2024/01/12 06:23:52;;;;;;;51.40;26.53;;;;;;;;;;5084731;28;20652;-86
2024/01/12 06:26:19;;;;;;;48.70;25.57;;;;;;;;;;5085583;28;20464;-86
2024/01/12 06:28:46;;;;;;;43.43;24.70;;;;;;;;;;5084913;28;20465;-86
2024/01/12 06:31:14;;;;;;;54.60;27.70;;;;;;;;;;5087414;28;20452;-84
2024/01/12 06:33:41;;;;;;;47.63;24.60;;;;;;;;;;5086842;28;20463;-85
2024/01/12 06:36:09;;;;;;;44.93;22.50;;;;;;;;;;5100914;28;20554;-84
2024/01/12 06:38:37;;;;;;;44.67;22.73;;;;;;;;;;5101472;28;20541;-86
2024/01/12 06:41:04;;;;;;;54.20;25.87;;;;;;;;;;5085831;28;20466;-87
2024/01/12 06:43:31;;;;;;;53.63;23.37;;;;;;;;;;5085211;28;20461;-84
2024/01/12 06:46:05;;;;;;;48.80;22.73;;;;;;;;;;5080890;28;20660;-89
2024/01/12 06:48:34;;;;;;;45.17;22.97;;;;;;;;;;5086902;28;20506;-87
2024/01/12 06:51:01;;;;;;;50.83;24.50;;;;;;;;;;5101772;28;20464;-85
2024/01/12 06:53:29;;;;;;;44.57;23.67;;;;;;;;;;5081405;28;20552;-84
2024/01/12 06:55:56;;;;;;;46.43;24.93;;;;;;;;;;5102678;27;20549;-85
2024/01/12 06:58:23;;;;;;;51.60;24.33;;;;;;;;;;5101963;27;20479;-85
2024/01/12 07:01:01;;;;;;;40.03;20.53;;;;;;;;;;5082447;28;20448;-85
2024/01/12 07:03:33;;;;;;;40.40;21.77;;;;;;;;;;5085064;28;21019;-89
2024/01/12 07:06:03;;;;;;;43.77;21.63;;;;;;;;;;5086071;28;20940;-86
2024/01/12 07:08:32;;;;;;;34.53;19.13;;;;;;;;;;5084861;28;20548;-86
2024/01/12 07:11:03;;;;;;;39.13;19.10;;;;;;;;;;5074255;28;20492;-85
2024/01/12 07:13:30;;;;;;;34.57;18.67;;;;;;;;;;5099920;28;21262;-86
2024/01/12 07:15:57;;;;;;;34.90;18.40;;;;;;;;;;5082454;28;20523;-87
2024/01/12 07:18:24;;;;;;;34.57;18.37;;;;;;;;;;5082506;28;20472;-87
2024/01/12 07:20:52;;;;;;;26.80;15.63;;;;;;;;;;5082199;28;20536;-87
2024/01/12 07:23:19;;;;;;;27.00;15.90;;;;;;;;;;5099793;28;20487;-84
2024/01/12 07:25:47;;;;;;;33.83;19.40;;;;;;;;;;5105441;28;20664;-88
2024/01/12 07:28:15;;;;;;;38.90;17.27;;;;;;;;;;5102767;28;20516;-85
2024/01/12 07:30:42;;;;;;;32.23;17.20;;;;;;;;;;5096622;28;20527;-86
2024/01/12 07:33:10;;;;;;;32.30;16.67;;;;;;;;;;5091380;28;20444;-86
2024/01/12 07:35:37;;;;;;;34.63;15.60;;;;;;;;;;5089182;28;20476;-86
2024/01/12 07:38:04;;;;;;;32.43;15.10;;;;;;;;;;5091231;28;20532;-85
2024/01/12 07:40:32;;;;;;;37.43;16.80;;;;;;;;;;5084864;28;20455;-86
2024/01/12 07:43:01;;;;;;;35.73;16.87;;;;;;;;;;5087847;28;20481;-87
2024/01/12 07:45:28;;;;;;;31.20;17.07;;;;;;;;;;5091017;28;20487;-86
2024/01/12 07:47:55;;;;;;;35.77;17.13;;;;;;;;;;5095968;28;20460;-87
2024/01/12 07:50:23;;;;;;;32.27;16.40;;;;;;;;;;5096848;28;20497;-87
2024/01/12 07:52:50;;;;;;;29.73;15.50;;;;;;;;;;5086159;28;20470;-84
2024/01/12 07:55:17;;;;;;;24.70;14.53;;;;;;;;;;5091980;28;20482;-86
2024/01/12 07:57:47;;;;;;;22.27;13.03;;;;;;;;;;5087117;28;21486;-86
2024/01/12 08:00:14;;;;;;;22.30;12.40;;;;;;;;;;5085512;28;21264;-85
2024/01/12 08:02:42;;;;;;;20.97;12.00;;;;;;;;;;5088227;28;20527;-85
2024/01/12 08:05:10;;;;;;;21.47;11.60;;;;;;;;;;5085262;28;20510;-86
2024/01/12 08:07:37;;;;;;;26.07;13.10;;;;;;;;;;5083889;28;20455;-83
2024/01/12 08:10:05;;;;;;;22.30;12.20;;;;;;;;;;5091445;28;20434;-85
2024/01/12 08:12:32;;;;;;;18.70;11.03;;;;;;;;;;5099403;28;20443;-84
2024/01/12 08:14:59;;;;;;;23.17;13.10;;;;;;;;;;5097444;28;20419;-85
2024/01/12 08:17:26;;;;;;;30.07;12.60;;;;;;;;;;5088044;28;20451;-85
2024/01/12 08:19:54;;;;;;;37.30;17.20;;;;;;;;;;5089674;28;20532;-86
2024/01/12 08:22:21;;;;;;;31.70;14.90;;;;;;;;;;5087187;28;20555;-87
2024/01/12 08:24:49;;;;;;;30.03;14.17;;;;;;;;;;5104727;27;20453;-86
2024/01/12 08:27:17;;;;;;;32.50;15.80;;;;;;;;;;5083910;28;20445;-87
2024/01/12 08:29:58;;;;;;;31.53;16.27;;;;;;;;;;5080557;28;20437;-87
2024/01/12 08:32:25;;;;;;;24.67;13.87;;;;;;;;;;5089652;28;20504;-87
2024/01/12 08:34:52;;;;;;;28.03;13.50;;;;;;;;;;5085591;28;20441;-87
2024/01/12 08:37:19;;;;;;;27.93;13.93;;;;;;;;;;5084326;28;20490;-87
2024/01/12 08:39:47;;;;;;;25.00;12.93;;;;;;;;;;5086856;28;20573;-86
2024/01/12 08:42:14;;;;;;;28.90;12.83;;;;;;;;;;5091385;28;20443;-87
2024/01/12 08:44:43;;;;;;;24.10;13.07;;;;;;;;;;5099323;28;20500;-86
2024/01/12 08:47:11;;;;;;;29.43;13.77;;;;;;;;;;5087200;28;20572;-86
2024/01/12 08:49:38;;;;;;;29.73;15.17;;;;;;;;;;5099933;28;20451;-85
2024/01/12 08:52:07;;;;;;;27.50;13.20;;;;;;;;;;5102025;28;20524;-86
2024/01/12 08:54:34;;;;;;;28.67;13.30;;;;;;;;;;5103174;28;20443;-85
2024/01/12 08:57:03;;;;;;;23.93;12.40;;;;;;;;;;5094475;28;20477;-86
2024/01/12 08:59:32;;;;;;;26.53;14.33;;;;;;;;;;5090731;28;20480;-87
2024/01/12 09:01:59;;;;;;;21.87;12.87;;;;;;;;;;5095991;28;20515;-87
2024/01/12 09:04:28;;;;;;;23.93;12.90;;;;;;;;;;5099561;28;21143;-86
2024/01/12 09:06:55;;;;;;;26.97;12.40;;;;;;;;;;5096185;28;20494;-86
2024/01/12 09:09:22;;;;;;;26.17;13.87;;;;;;;;;;5090251;28;20482;-87
2024/01/12 09:11:50;;;;;;;26.43;12.63;;;;;;;;;;5092089;28;20916;-88
2024/01/12 09:14:17;;;;;;;27.00;14.03;;;;;;;;;;5109294;28;20476;-86
2024/01/12 09:16:48;;;;;;;26.53;13.30;;;;;;;;;;5084793;28;20470;-86
2024/01/12 09:19:17;;;;;;;25.93;14.60;;;;;;;;;;5085614;28;20467;-87
2024/01/12 09:21:48;;;;;;;26.50;13.37;;;;;;;;;;5091525;28;20475;-87
2024/01/12 09:24:17;;;;;;;26.20;13.80;;;;;;;;;;5107273;28;20473;-87
2024/01/12 09:26:47;;;;;;;25.57;15.20;;;;;;;;;;5090142;28;20512;-86
2024/01/12 09:29:15;;;;;;;29.23;13.30;;;;;;;;;;5106947;28;20470;-86
2024/01/12 09:31:44;;;;;;;30.87;14.83;;;;;;;;;;5083472;28;21119;-86
2024/01/12 09:34:38;;;;;;;23.70;13.40;;;;;;;;;;5090786;28;20461;-87
2024/01/12 09:37:06;;;;;;;30.83;14.97;;;;;;;;;;5088501;28;20472;-87
2024/01/12 09:39:33;;;;;;;30.13;15.07;;;;;;;;;;5098313;28;20503;-86
2024/01/12 09:42:02;;;;;;;28.70;14.43;;;;;;;;;;5097457;28;20452;-86
2024/01/12 09:44:29;;;;;;;29.80;16.87;;;;;;;;;;5113482;28;20463;-85
2024/01/12 09:46:58;;;;;;;33.17;17.27;;;;;;;;;;5096301;28;20429;-85
2024/01/12 09:49:28;;;;;;;24.00;15.00;;;;;;;;;;5094130;28;20491;-87
2024/01/12 09:51:59;;;;;;;28.70;15.33;;;;;;;;;;5094355;28;20542;-85
2024/01/12 09:54:26;;;;;;;23.60;13.50;;;;;;;;;;5070245;28;21838;-85
2024/01/12 09:56:54;;;;;;;26.40;14.50;;;;;;;;;;5091404;28;20489;-87
2024/01/12 09:59:22;;;;;;;24.53;13.60;;;;;;;;;;5090206;28;20483;-87
2024/01/12 10:01:50;;;;;;;26.43;13.30;;;;;;;;;;5088503;28;20552;-85
2024/01/12 10:04:17;;;;;;;19.80;11.40;;;;;;;;;;5090131;28;20469;-86
2024/01/12 10:07:07;;;;;;;22.20;12.23;;;;;;;;;;5079323;28;20475;-85
2024/01/12 10:10:08;;;;;;;22.43;13.20;;;;;;;;;;5086562;28;20465;-88
2024/01/12 10:12:35;;;;;;;20.37;11.37;;;;;;;;;;5109910;28;20476;-89
2024/01/12 10:15:10;;;;;;;21.67;13.80;;;;;;;;;;5094641;28;21490;-86
2024/01/12 10:17:37;;;;;;;28.67;13.97;;;;;;;;;;5095111;28;20503;-85
2024/01/12 10:20:06;;;;;;;25.20;13.60;;;;;;;;;;5087675;28;20463;-85
2024/01/12 10:22:46;;;;;;;29.50;15.27;;;;;;;;;;5094924;28;20477;-85
2024/01/12 10:25:36;;;;;;;29.93;15.20;;;;;;;;;;5091804;28;20445;-85
2024/01/12 10:28:44;;;;;;;20.97;12.57;;;;;;;;;;5090755;28;20473;-85
2024/01/12 10:31:17;;;;;;;18.30;11.90;;;;;;;;;;5080198;28;20460;-85
2024/01/12 10:33:46;;;;;;;20.93;12.17;;;;;;;;;;5105331;28;20646;-83
2024/01/12 10:36:26;;;;;;;23.90;13.20;;;;;;;;;;5070622;28;20480;-84
2024/01/12 10:39:09;;;;;;;20.13;11.90;;;;;;;;;;5094622;28;20467;-87
2024/01/12 10:42:11;;;;;;;26.83;13.17;;;;;;;;;;5094840;28;20476;-86
2024/01/12 10:45:06;;;;;;;22.80;13.20;;;;;;;;;;5083921;28;20432;-83
2024/01/12 10:47:35;;;;;;;20.97;13.03;;;;;;;;;;5091496;28;20563;-87
2024/01/12 10:50:07;;;;;;;21.80;12.30;;;;;;;;;;5104929;28;20464;-87
2024/01/12 10:52:59;;;;;;;23.20;13.60;;;;;;;;;;5092943;28;20449;-87
2024/01/12 10:55:49;;;;;;;23.33;13.47;;;;;;;;;;5084364;28;20491;-87
2024/01/12 10:58:17;;;;;;;23.30;14.83;;;;;;;;;;5101966;28;22375;-87
2024/01/12 11:00:44;;;;;;;27.20;15.97;;;;;;;;;;5089376;28;20445;-86
2024/01/12 11:03:13;;;;;;;27.53;15.70;;;;;;;;;;5090017;28;20541;-85
2024/01/12 11:05:43;;;;;;;33.10;16.70;;;;;;;;;;5094021;28;20458;-85
2024/01/12 11:08:22;;;;;;;30.70;15.63;;;;;;;;;;5107751;27;20467;-87
2024/01/12 11:10:55;;;;;;;32.30;16.27;;;;;;;;;;5090198;28;20458;-85
2024/01/12 11:13:23;;;;;;;30.27;16.10;;;;;;;;;;5091308;28;20456;-88
2024/01/12 11:15:52;;;;;;;31.20;15.63;;;;;;;;;;5093808;28;20581;-85
2024/01/12 11:18:20;;;;;;;28.33;16.23;;;;;;;;;;5105812;28;20970;-87
2024/01/12 11:20:48;;;;;;;32.20;16.93;;;;;;;;;;5093849;28;20467;-85
2024/01/12 11:23:17;;;;;;;30.93;14.90;;;;;;;;;;5094155;28;20452;-86
2024/01/12 11:25:44;;;;;;;28.83;16.30;;;;;;;;;;5091852;28;20457;-86
2024/01/12 11:28:14;;;;;;;27.23;15.23;;;;;;;;;;5095877;28;20552;-86
2024/01/12 11:30:42;;;;;;;28.70;16.27;;;;;;;;;;5109578;27;20525;-87
2024/01/12 11:33:17;;;;;;;32.30;16.43;;;;;;;;;;5096370;28;20485;-86
2024/01/12 11:36:18;;;;;;;38.40;18.80;;;;;;;;;;5091945;28;20457;-87
2024/01/12 11:39:14;;;;;;;36.00;16.73;;;;;;;;;;5016382;28;20482;-85
2024/01/12 11:41:47;;;;;;;37.90;18.87;;;;;;;;;;5013248;28;20517;-86
2024/01/12 11:44:14;;;;;;;33.70;19.13;;;;;;;;;;5031009;28;20454;-85
2024/01/12 11:46:42;;;;;;;39.17;18.30;;;;;;;;;;5034670;28;20482;-85
2024/01/12 11:49:10;;;;;;;31.93;17.20;;;;;;;;;;5039747;28;20496;-85
2024/01/12 11:51:37;;;;;;;35.97;18.33;;;;;;;;;;5019548;28;20455;-86
2024/01/12 11:54:04;;;;;;;39.37;18.70;;;;;;;;;;5030367;28;20495;-86
2024/01/12 11:56:32;;;;;;;39.40;20.20;;;;;;;;;;5014597;28;20478;-87
2024/01/12 11:58:59;;;;;;;44.10;18.90;;;;;;;;;;5030420;28;20460;-86
2024/01/12 12:01:37;;;;;;;37.70;18.67;;;;;;;;;;5013169;28;20625;-85
2024/01/12 12:04:04;;;;;;;40.97;18.60;;;;;;;;;;5012699;28;20455;-84
2024/01/12 12:06:32;;;;;;;40.70;18.93;;;;;;;;;;5019632;28;20444;-85
2024/01/12 12:08:59;;;;;;;36.70;18.30;;;;;;;;;;5037065;28;20472;-86
2024/01/12 12:11:29;;;;;;;33.27;18.80;;;;;;;;;;5016140;28;20459;-85
2024/01/12 12:13:57;;;;;;;35.53;17.77;;;;;;;;;;5082454;28;20467;-85
2024/01/12 12:16:24;;;;;;;34.70;18.13;;;;;;;;;;5085537;28;20517;-86
2024/01/12 12:18:52;;;;;;;44.67;19.57;;;;;;;;;;5093848;28;20567;-86
2024/01/12 12:21:21;;;;;;;34.63;16.83;;;;;;;;;;5092944;28;20963;-86
2024/01/12 12:23:49;;;;;;;33.13;17.77;;;;;;;;;;5102419;28;20476;-88
2024/01/12 12:26:18;;;;;;;39.43;19.03;;;;;;;;;;5100625;28;20431;-85
2024/01/12 12:28:46;;;;;;;30.93;16.27;;;;;;;;;;5095465;22;20524;-85
2024/01/12 12:31:18;;;;;;;36.53;18.07;;;;;;;;;;5058020;28;20455;-86
2024/01/12 12:33:52;;;;;;;31.30;17.07;;;;;;;;;;5054512;28;20459;-88
2024/01/12 12:36:29;;;;;;;34.47;18.83;;;;;;;;;;5072945;28;20481;-84
2024/01/12 12:39:04;;;;;;;37.27;17.90;;;;;;;;;;5043520;28;20465;-85
2024/01/12 12:41:34;;;;;;;40.93;20.17;;;;;;;;;;5037584;28;21048;-85
2024/01/12 12:44:07;;;;;;;32.00;16.70;;;;;;;;;;5025005;28;20535;-86
2024/01/12 12:46:47;;;;;;;34.90;16.37;;;;;;;;;;5032973;28;20475;-86
2024/01/12 12:49:20;;;;;;;32.37;17.30;;;;;;;;;;5024532;28;20502;-85
2024/01/12 12:51:49;;;;;;;30.37;17.17;;;;;;;;;;5036271;28;20531;-87
2024/01/12 12:54:20;;;;;;;36.50;17.70;;;;;;;;;;5051105;28;20510;-86
2024/01/12 12:56:50;;;;;;;33.43;17.27;;;;;;;;;;5029849;28;20508;-88
2024/01/12 12:59:17;;;;;;;37.33;16.70;;;;;;;;;;5047614;28;20478;-86
2024/01/12 13:01:47;;;;;;;32.50;16.43;;;;;;;;;;5042747;28;20448;-84
2024/01/12 13:04:19;;;;;;;37.27;17.60;;;;;;;;;;5038005;28;21020;-84
2024/01/12 13:20:34;;;;;;;31.40;16.53;;;;;;;;;;5023500;28;20479;-87
2024/01/12 13:23:06;;;;;;;30.37;15.90;;;;;;;;;;4995226;28;20457;-85
2024/01/12 13:25:48;;;;;;;27.63;15.23;;;;;;;;;;4996106;28;20483;-84
2024/01/12 13:28:48;;;;;;;27.90;14.70;;;;;;;;;;5025694;28;20489;-87
2024/01/12 13:31:15;;;;;;;27.77;14.37;;;;;;;;;;5015012;28;20548;-86
2024/01/12 13:33:51;;;;;;;26.40;14.03;;;;;;;;;;5000628;28;20455;-85
2024/01/12 13:36:18;;;;;;;30.30;14.47;;;;;;;;;;5016635;28;20495;-86
2024/01/12 13:38:53;;;;;;;29.83;14.80;;;;;;;;;;4995235;28;20574;-86
2024/01/12 13:41:23;;;;;;;32.13;16.53;;;;;;;;;;5000393;28;20554;-87
2024/01/12 13:44:04;;;;;;;30.63;15.53;;;;;;;;;;5009680;28;20495;-86
2024/01/12 13:46:32;;;;;;;27.87;14.00;;;;;;;;;;5035505;28;20539;-86
2024/01/12 13:48:59;;;;;;;30.53;14.37;;;;;;;;;;5005101;28;20488;-87
2024/01/12 13:51:45;;;;;;;33.03;16.17;;;;;;;;;;5040537;28;20463;-88
2024/01/12 13:54:18;;;;;;;30.60;14.93;;;;;;;;;;5074611;23;20560;-86
2024/01/12 13:56:50;;;;;;;31.67;15.30;;;;;;;;;;5268128;22;20490;-87
2024/01/12 13:59:19;;;;;;;25.80;14.40;;;;;;;;;;5057202;28;20508;-86
2024/01/12 14:01:47;;;;;;;31.90;14.80;;;;;;;;;;5067141;22;20492;-84
2024/01/12 14:04:16;;;;;;;37.60;16.10;;;;;;;;;;5159561;22;20494;-87
2024/01/12 14:06:47;;;;;;;34.53;16.07;;;;;;;;;;5029795;28;20468;-88
2024/01/12 14:09:17;;;;;;;34.93;16.77;;;;;;;;;;5039146;28;20586;-87
2024/01/12 14:11:49;;;;;;;30.70;15.73;;;;;;;;;;5033484;28;20437;-87
2024/01/12 14:14:19;;;;;;;30.50;17.60;;;;;;;;;;5035828;28;20464;-87
2024/01/12 14:16:54;;;;;;;41.93;19.60;;;;;;;;;;5038044;28;20513;-86
2024/01/12 14:19:23;;;;;;;31.83;17.57;;;;;;;;;;5036574;28;20459;-86
2024/01/12 14:21:52;;;;;;;40.67;17.97;;;;;;;;;;5028703;28;20702;-85
2024/01/12 14:24:22;;;;;;;35.10;18.80;;;;;;;;;;5028396;28;20452;-86
2024/01/12 14:26:52;;;;;;;34.40;18.23;;;;;;;;;;5031005;28;20454;-87
2024/01/12 14:29:21;;;;;;;36.57;19.03;;;;;;;;;;5016116;28;20474;-87
2024/01/12 14:31:51;;;;;;;39.60;18.43;;;;;;;;;;5052549;28;20517;-88
2024/01/12 14:34:23;;;;;;;38.07;17.40;;;;;;;;;;5033690;28;20515;-87
2024/01/12 14:36:53;;;;;;;36.77;18.27;;;;;;;;;;5015936;28;20465;-87
2024/01/12 14:39:24;;;;;;;39.67;18.83;;;;;;;;;;5013866;28;20548;-86
2024/01/12 14:41:58;;;;;;;35.97;17.57;;;;;;;;;;5012976;28;20463;-89
2024/01/12 14:44:27;;;;;;;34.20;16.40;;;;;;;;;;5025248;28;20454;-87